sensor_id;sensor_type;location;lat;lon;timestamp;pressure;altitude;pressure_sealevel;temperature;humidity
62237;BME280;69163;48.778;2.308;2023-05-11T00:01:20;100853.06;;;19.11;40.62
62237;BME280;69163;48.778;2.308;2023-05-11T00:03:45;100847.45;;;19.11;40.58
62237;BME280;69163;48.778;2.308;2023-05-11T00:06:11;100847.86;;;19.16;40.49
62237;BME280;69163;48.778;2.308;2023-05-11T00:08:36;100846.98;;;19.12;40.43
62237;BME280;69163;48.778;2.308;2023-05-11T00:11:01;100844.17;;;19.12;40.46
62237;BME280;69163;48.778;2.308;2023-05-11T00:13:26;100842.56;;;19.12;40.43
62237;BME280;69163;48.778;2.308;2023-05-11T00:15:51;100839.32;;;19.01;40.57
62237;BME280;69163;48.778;2.308;2023-05-11T00:18:17;100839.84;;;19.24;40.26
62237;BME280;69163;48.778;2.308;2023-05-11T00:20:42;100841.48;;;19.09;40.38
62237;BME280;69163;48.778;2.308;2023-05-11T00:23:07;100841.69;;;18.99;40.45
62237;BME280;69163;48.778;2.308;2023-05-11T00:25:33;100839.93;;;19.28;40.35
62237;BME280;69163;48.778;2.308;2023-05-11T00:27:57;100838.17;;;19.06;40.33
62237;BME280;69163;48.778;2.308;2023-05-11T00:30:22;100836.81;;;19.18;40.19
62237;BME280;69163;48.778;2.308;2023-05-11T00:32:49;100839.72;;;19.14;40.15
62237;BME280;69163;48.778;2.308;2023-05-11T00:35:13;100834.78;;;19.24;40.06
62237;BME280;69163;48.778;2.308;2023-05-11T00:37:39;100835.54;;;19.13;40.12
62237;BME280;69163;48.778;2.308;2023-05-11T00:40:05;100834.97;;;19.16;40.34
62237;BME280;69163;48.778;2.308;2023-05-11T00:42:28;100831.46;;;19.29;39.92
62237;BME280;69163;48.778;2.308;2023-05-11T00:44:54;100828.64;;;18.95;40.26
62237;BME280;69163;48.778;2.308;2023-05-11T00:47:19;100829.64;;;19.01;40.17
62237;BME280;69163;48.778;2.308;2023-05-11T00:49:45;100829.58;;;19.02;40.12
62237;BME280;69163;48.778;2.308;2023-05-11T00:52:10;100827.38;;;19.03;40.10
62237;BME280;69163;48.778;2.308;2023-05-11T00:54:35;100827.35;;;19.15;39.97
62237;BME280;69163;48.778;2.308;2023-05-11T00:57:00;100825.97;;;19.12;39.97
62237;BME280;69163;48.778;2.308;2023-05-11T00:59:25;100825.11;;;19.13;40.16
62237;BME280;69163;48.778;2.308;2023-05-11T01:01:50;100824.57;;;18.61;40.23
62237;BME280;69163;48.778;2.308;2023-05-11T01:04:16;100821.56;;;18.86;40.22
62237;BME280;69163;48.778;2.308;2023-05-11T01:06:48;100824.73;;;18.95;40.10
62237;BME280;69163;48.778;2.308;2023-05-11T01:09:10;100824.23;;;18.98;40.05
62237;BME280;69163;48.778;2.308;2023-05-11T01:11:36;100821.68;;;19.52;39.97
62237;BME280;69163;48.778;2.308;2023-05-11T01:14:02;100821.15;;;19.44;40.00
62237;BME280;69163;48.778;2.308;2023-05-11T01:16:22;100821.69;;;19.25;39.96
62237;BME280;69163;48.778;2.308;2023-05-11T01:18:51;100827.12;;;18.90;40.05
62237;BME280;69163;48.778;2.308;2023-05-11T01:21:13;100825.63;;;18.90;40.00
62237;BME280;69163;48.778;2.308;2023-05-11T01:23:48;100828.29;;;19.25;39.83
62237;BME280;69163;48.778;2.308;2023-05-11T01:26:09;100824.59;;;19.03;39.78
62237;BME280;69163;48.778;2.308;2023-05-11T01:28:41;100824.38;;;19.03;39.77
62237;BME280;69163;48.778;2.308;2023-05-11T01:30:55;100827.10;;;19.01;39.78
62237;BME280;69163;48.778;2.308;2023-05-11T01:33:25;100827.41;;;19.09;39.64
62237;BME280;69163;48.778;2.308;2023-05-11T01:35:49;100825.59;;;19.15;39.49
62237;BME280;69163;48.778;2.308;2023-05-11T01:38:11;100825.85;;;19.09;39.58
62237;BME280;69163;48.778;2.308;2023-05-11T01:40:35;100825.93;;;19.18;39.45
62237;BME280;69163;48.778;2.308;2023-05-11T01:43:03;100828.85;;;19.29;39.55
62237;BME280;69163;48.778;2.308;2023-05-11T01:45:25;100828.18;;;19.55;39.49
62237;BME280;69163;48.778;2.308;2023-05-11T01:47:50;100828.70;;;19.00;39.62
62237;BME280;69163;48.778;2.308;2023-05-11T01:50:16;100829.93;;;19.10;39.48
62237;BME280;69163;48.778;2.308;2023-05-11T01:52:41;100824.59;;;19.33;39.44
62237;BME280;69163;48.778;2.308;2023-05-11T01:55:07;100826.64;;;19.07;39.45
62237;BME280;69163;48.778;2.308;2023-05-11T01:57:31;100828.99;;;19.63;39.36
62237;BME280;69163;48.778;2.308;2023-05-11T01:59:56;100830.71;;;19.66;39.26
62237;BME280;69163;48.778;2.308;2023-05-11T02:02:22;100834.34;;;19.29;39.10
62237;BME280;69163;48.778;2.308;2023-05-11T02:04:47;100834.22;;;19.22;39.16
62237;BME280;69163;48.778;2.308;2023-05-11T02:07:13;100838.91;;;19.31;39.03
62237;BME280;69163;48.778;2.308;2023-05-11T02:09:37;100839.91;;;19.34;38.96
62237;BME280;69163;48.778;2.308;2023-05-11T02:12:04;100840.61;;;19.31;38.95
62237;BME280;69163;48.778;2.308;2023-05-11T02:14:28;100841.93;;;19.30;38.98
62237;BME280;69163;48.778;2.308;2023-05-11T02:16:53;100839.20;;;19.29;38.95
62237;BME280;69163;48.778;2.308;2023-05-11T02:19:19;100840.66;;;19.19;39.04
62237;BME280;69163;48.778;2.308;2023-05-11T02:21:43;100844.86;;;19.40;38.79
62237;BME280;69163;48.778;2.308;2023-05-11T02:24:08;100844.32;;;19.26;38.94
62237;BME280;69163;48.778;2.308;2023-05-11T02:26:34;100843.76;;;19.73;38.91
62237;BME280;69163;48.778;2.308;2023-05-11T02:28:58;100845.20;;;19.40;38.73
62237;BME280;69163;48.778;2.308;2023-05-11T02:31:26;100845.79;;;19.43;38.69
62237;BME280;69163;48.778;2.308;2023-05-11T02:33:51;100844.41;;;19.45;38.64
62237;BME280;69163;48.778;2.308;2023-05-11T02:36:18;100842.28;;;19.43;38.63
62237;BME280;69163;48.778;2.308;2023-05-11T02:38:41;100840.79;;;19.37;38.68
62237;BME280;69163;48.778;2.308;2023-05-11T02:41:08;100839.90;;;19.62;38.68
62237;BME280;69163;48.778;2.308;2023-05-11T02:43:32;100840.73;;;19.37;38.65
62237;BME280;69163;48.778;2.308;2023-05-11T02:46:01;100839.69;;;19.39;38.62
62237;BME280;69163;48.778;2.308;2023-05-11T02:48:23;100838.20;;;19.20;38.54
62237;BME280;69163;48.778;2.308;2023-05-11T02:50:46;100842.70;;;19.45;38.50
62237;BME280;69163;48.778;2.308;2023-05-11T02:53:14;100840.40;;;19.50;38.42
62237;BME280;69163;48.778;2.308;2023-05-11T02:55:36;100837.78;;;19.51;38.40
62237;BME280;69163;48.778;2.308;2023-05-11T02:58:01;100841.17;;;19.72;38.43
62237;BME280;69163;48.778;2.308;2023-05-11T03:00:26;100841.34;;;19.61;38.57
62237;BME280;69163;48.778;2.308;2023-05-11T03:02:51;100838.65;;;19.36;38.53
62237;BME280;69163;48.778;2.308;2023-05-11T03:05:22;100840.31;;;19.35;38.55
62237;BME280;69163;48.778;2.308;2023-05-11T03:07:42;100838.86;;;19.46;38.38
62237;BME280;69163;48.778;2.308;2023-05-11T03:10:08;100834.40;;;19.70;38.37
62237;BME280;69163;48.778;2.308;2023-05-11T03:12:32;100835.73;;;19.69;38.33
62237;BME280;69163;48.778;2.308;2023-05-11T03:14:58;100835.92;;;19.41;38.36
62237;BME280;69163;48.778;2.308;2023-05-11T03:17:23;100839.41;;;19.46;38.30
62237;BME280;69163;48.778;2.308;2023-05-11T03:19:48;100838.42;;;19.41;38.36
62237;BME280;69163;48.778;2.308;2023-05-11T03:22:13;100836.64;;;19.54;38.17
62237;BME280;69163;48.778;2.308;2023-05-11T03:24:38;100831.52;;;19.49;38.20
62237;BME280;69163;48.778;2.308;2023-05-11T03:27:03;100830.75;;;19.30;38.37
62237;BME280;69163;48.778;2.308;2023-05-11T03:29:29;100832.94;;;19.41;38.27
62237;BME280;69163;48.778;2.308;2023-05-11T03:31:54;100830.80;;;19.47;38.17
62237;BME280;69163;48.778;2.308;2023-05-11T03:34:19;100833.66;;;19.42;38.23
62237;BME280;69163;48.778;2.308;2023-05-11T03:36:46;100830.59;;;19.45;38.16
62237;BME280;69163;48.778;2.308;2023-05-11T03:39:11;100830.77;;;20.00;38.06
62237;BME280;69163;48.778;2.308;2023-05-11T03:41:36;100832.15;;;19.55;38.01
62237;BME280;69163;48.778;2.308;2023-05-11T03:44:02;100827.46;;;19.52;38.01
62237;BME280;69163;48.778;2.308;2023-05-11T03:46:26;100830.58;;;19.53;37.98
62237;BME280;69163;48.778;2.308;2023-05-11T03:48:51;100827.60;;;19.58;37.91
62237;BME280;69163;48.778;2.308;2023-05-11T03:51:16;100828.58;;;19.73;38.01
62237;BME280;69163;48.778;2.308;2023-05-11T03:53:41;100826.83;;;19.98;37.95
62237;BME280;69163;48.778;2.308;2023-05-11T03:56:06;100825.83;;;19.44;38.02
62237;BME280;69163;48.778;2.308;2023-05-11T03:58:31;100826.31;;;19.49;37.99
62237;BME280;69163;48.778;2.308;2023-05-11T04:00:58;100823.50;;;19.52;37.92
62237;BME280;69163;48.778;2.308;2023-05-11T04:03:22;100823.73;;;19.76;37.88
62237;BME280;69163;48.778;2.308;2023-05-11T04:05:47;100820.05;;;19.81;37.81
62237;BME280;69163;48.778;2.308;2023-05-11T04:08:12;100821.17;;;19.85;37.71
62237;BME280;69163;48.778;2.308;2023-05-11T04:10:37;100822.95;;;19.63;37.69
62237;BME280;69163;48.778;2.308;2023-05-11T04:13:02;100822.27;;;19.33;37.76
62237;BME280;69163;48.778;2.308;2023-05-11T04:15:28;100818.83;;;19.56;37.75
62237;BME280;69163;48.778;2.308;2023-05-11T04:17:53;100817.52;;;19.57;37.72
62237;BME280;69163;48.778;2.308;2023-05-11T04:20:18;100817.35;;;19.60;37.66
62237;BME280;69163;48.778;2.308;2023-05-11T04:22:43;100818.76;;;19.65;37.60
62237;BME280;69163;48.778;2.308;2023-05-11T04:25:09;100817.95;;;19.70;37.51
62237;BME280;69163;48.778;2.308;2023-05-11T04:27:34;100818.49;;;19.67;37.53
62237;BME280;69163;48.778;2.308;2023-05-11T04:29:59;100821.02;;;19.94;37.49
62237;BME280;69163;48.778;2.308;2023-05-11T04:32:24;100820.92;;;19.94;37.47
62237;BME280;69163;48.778;2.308;2023-05-11T04:34:49;100822.79;;;19.69;37.46
62237;BME280;69163;48.778;2.308;2023-05-11T04:37:14;100822.23;;;19.58;37.54
62237;BME280;69163;48.778;2.308;2023-05-11T04:39:40;100822.84;;;19.60;37.53
62237;BME280;69163;48.778;2.308;2023-05-11T04:42:05;100823.41;;;19.60;37.51
62237;BME280;69163;48.778;2.308;2023-05-11T04:44:30;100825.49;;;19.80;37.54
62237;BME280;69163;48.778;2.308;2023-05-11T04:46:56;100824.45;;;20.00;37.57
62237;BME280;69163;48.778;2.308;2023-05-11T04:49:20;100825.26;;;19.56;37.53
62237;BME280;69163;48.778;2.308;2023-05-11T04:51:45;100827.25;;;20.01;37.55
62237;BME280;69163;48.778;2.308;2023-05-11T04:54:11;100827.00;;;19.59;37.42
62237;BME280;69163;48.778;2.308;2023-05-11T04:56:36;100828.16;;;20.07;37.41
62237;BME280;69163;48.778;2.308;2023-05-11T04:59:01;100832.60;;;19.59;37.41
62237;BME280;69163;48.778;2.308;2023-05-11T05:01:27;100831.21;;;19.58;37.39
62237;BME280;69163;48.778;2.308;2023-05-11T05:03:52;100834.83;;;19.51;37.46
62237;BME280;69163;48.778;2.308;2023-05-11T05:06:17;100835.88;;;19.48;37.50
62237;BME280;69163;48.778;2.308;2023-05-11T05:08:42;100833.60;;;19.59;37.36
62237;BME280;69163;48.778;2.308;2023-05-11T05:11:07;100837.46;;;19.77;37.42
62237;BME280;69163;48.778;2.308;2023-05-11T05:13:32;100838.27;;;19.41;37.55
62237;BME280;69163;48.778;2.308;2023-05-11T05:15:57;100842.53;;;19.51;37.45
62237;BME280;69163;48.778;2.308;2023-05-11T05:18:23;100846.04;;;19.42;37.52
62237;BME280;69163;48.778;2.308;2023-05-11T05:20:48;100846.22;;;19.52;37.40
62237;BME280;69163;48.778;2.308;2023-05-11T05:23:13;100849.05;;;19.57;37.32
62237;BME280;69163;48.778;2.308;2023-05-11T05:25:39;100851.13;;;20.05;37.32
62237;BME280;69163;48.778;2.308;2023-05-11T05:28:03;100851.51;;;19.54;37.34
62237;BME280;69163;48.778;2.308;2023-05-11T05:30:29;100852.12;;;19.53;37.32
62237;BME280;69163;48.778;2.308;2023-05-11T05:32:54;100853.39;;;19.46;37.41
62237;BME280;69163;48.778;2.308;2023-05-11T05:35:20;100854.30;;;19.51;37.32
62237;BME280;69163;48.778;2.308;2023-05-11T05:37:45;100856.42;;;19.77;37.32
62237;BME280;69163;48.778;2.308;2023-05-11T05:40:10;100856.65;;;19.73;37.33
62237;BME280;69163;48.778;2.308;2023-05-11T05:42:35;100858.80;;;20.07;37.22
62237;BME280;69163;48.778;2.308;2023-05-11T05:45:01;100859.13;;;19.63;37.17
62237;BME280;69163;48.778;2.308;2023-05-11T05:47:26;100861.10;;;20.07;37.19
62237;BME280;69163;48.778;2.308;2023-05-11T05:49:51;100861.79;;;19.52;37.27
62237;BME280;69163;48.778;2.308;2023-05-11T05:52:16;100859.02;;;19.48;37.30
62237;BME280;69163;48.778;2.308;2023-05-11T05:54:41;100862.42;;;19.59;37.17
62237;BME280;69163;48.778;2.308;2023-05-11T05:57:06;100861.41;;;19.54;37.19
62237;BME280;69163;48.778;2.308;2023-05-11T05:59:31;100864.72;;;19.51;37.21
62237;BME280;69163;48.778;2.308;2023-05-11T06:01:57;100865.63;;;19.53;37.21
62237;BME280;69163;48.778;2.308;2023-05-11T06:04:22;100868.51;;;19.60;37.12
62237;BME280;69163;48.778;2.308;2023-05-11T06:06:47;100870.68;;;20.02;37.16
62237;BME280;69163;48.778;2.308;2023-05-11T06:09:13;100871.56;;;19.84;37.09
62237;BME280;69163;48.778;2.308;2023-05-11T06:11:37;100871.23;;;19.82;37.10
62237;BME280;69163;48.778;2.308;2023-05-11T06:14:03;100873.68;;;19.58;37.09
62237;BME280;69163;48.778;2.308;2023-05-11T06:16:28;100876.58;;;19.59;37.06
62237;BME280;69163;48.778;2.308;2023-05-11T06:18:53;100877.70;;;19.54;37.13
62237;BME280;69163;48.778;2.308;2023-05-11T06:21:19;100879.29;;;19.94;37.19
62237;BME280;69163;48.778;2.308;2023-05-11T06:23:43;100879.21;;;19.52;37.13
62237;BME280;69163;48.778;2.308;2023-05-11T06:26:08;100880.72;;;19.44;37.22
62237;BME280;69163;48.778;2.308;2023-05-11T06:28:34;100883.10;;;19.49;37.16
62237;BME280;69163;48.778;2.308;2023-05-11T06:31:05;100884.18;;;19.55;37.10
62237;BME280;69163;48.778;2.308;2023-05-11T06:33:25;100885.89;;;19.47;37.16
62237;BME280;69163;48.778;2.308;2023-05-11T06:35:50;100891.33;;;19.75;37.11
62237;BME280;69163;48.778;2.308;2023-05-11T06:38:14;100889.43;;;19.44;37.17
62237;BME280;69163;48.778;2.308;2023-05-11T06:40:40;100884.90;;;19.22;37.13
62237;BME280;69163;48.778;2.308;2023-05-11T06:43:05;100887.59;;;19.18;37.18
62237;BME280;69163;48.778;2.308;2023-05-11T06:45:31;100889.81;;;19.44;37.15
62237;BME280;69163;48.778;2.308;2023-05-11T06:47:56;100890.59;;;19.46;37.12
62237;BME280;69163;48.778;2.308;2023-05-11T06:50:21;100892.40;;;19.97;37.09
62237;BME280;69163;48.778;2.308;2023-05-11T06:52:46;100891.01;;;19.54;37.04
62237;BME280;69163;48.778;2.308;2023-05-11T06:55:12;100892.42;;;19.51;37.08
62237;BME280;69163;48.778;2.308;2023-05-11T06:57:37;100892.19;;;19.39;37.21
62237;BME280;69163;48.778;2.308;2023-05-11T07:00:01;100893.77;;;19.46;37.15
62237;BME280;69163;48.778;2.308;2023-05-11T07:02:27;100893.84;;;19.68;37.15
62237;BME280;69163;48.778;2.308;2023-05-11T07:04:52;100897.76;;;19.49;37.09
62237;BME280;69163;48.778;2.308;2023-05-11T07:07:18;100895.84;;;19.45;37.12
62237;BME280;69163;48.778;2.308;2023-05-11T07:09:43;100896.21;;;19.69;37.10
62237;BME280;69163;48.778;2.308;2023-05-11T07:12:07;100895.55;;;19.38;37.18
62237;BME280;69163;48.778;2.308;2023-05-11T07:14:33;100896.37;;;19.46;37.07
62237;BME280;69163;48.778;2.308;2023-05-11T07:16:58;100893.43;;;19.43;37.09
62237;BME280;69163;48.778;2.308;2023-05-11T07:19:24;100895.12;;;19.43;37.08
62237;BME280;69163;48.778;2.308;2023-05-11T07:21:49;100892.77;;;19.43;37.09
62237;BME280;69163;48.778;2.308;2023-05-11T07:24:14;100892.16;;;19.71;37.02
62237;BME280;69163;48.778;2.308;2023-05-11T07:26:39;100893.57;;;19.95;37.01
62237;BME280;69163;48.778;2.308;2023-05-11T07:29:04;100894.48;;;19.43;37.08
62237;BME280;69163;48.778;2.308;2023-05-11T07:31:29;100893.73;;;19.51;36.96
62237;BME280;69163;48.778;2.308;2023-05-11T07:33:55;100893.16;;;19.52;36.95
62237;BME280;69163;48.778;2.308;2023-05-11T07:36:20;100892.66;;;19.73;36.95
62237;BME280;69163;48.778;2.308;2023-05-11T07:38:45;100894.86;;;19.45;37.00
62237;BME280;69163;48.778;2.308;2023-05-11T07:41:11;100897.40;;;19.94;36.96
62237;BME280;69163;48.778;2.308;2023-05-11T07:43:36;100895.40;;;19.93;36.96
62237;BME280;69163;48.778;2.308;2023-05-11T07:46:01;100896.69;;;19.37;37.04
62237;BME280;69163;48.778;2.308;2023-05-11T07:48:26;100897.68;;;19.84;37.01
62237;BME280;69163;48.778;2.308;2023-05-11T07:50:51;100896.60;;;19.40;36.97
62237;BME280;69163;48.778;2.308;2023-05-11T07:53:17;100898.41;;;19.90;36.95
62237;BME280;69163;48.778;2.308;2023-05-11T07:55:42;100898.01;;;19.65;36.96
62237;BME280;69163;48.778;2.308;2023-05-11T07:58:06;100895.82;;;19.17;36.98
62237;BME280;69163;48.778;2.308;2023-05-11T08:00:32;100893.56;;;19.36;37.01
62237;BME280;69163;48.778;2.308;2023-05-11T08:02:57;100891.56;;;19.60;38.14
62237;BME280;69163;48.778;2.308;2023-05-11T08:05:23;100895.45;;;19.40;39.71
62237;BME280;69163;48.778;2.308;2023-05-11T08:07:48;100894.73;;;19.70;40.02
62237;BME280;69163;48.778;2.308;2023-05-11T08:10:13;100892.74;;;19.52;39.97
62237;BME280;69163;48.778;2.308;2023-05-11T08:12:39;100893.48;;;20.05;40.04
62237;BME280;69163;48.778;2.308;2023-05-11T08:15:04;100891.58;;;19.59;40.10
62237;BME280;69163;48.778;2.308;2023-05-11T08:17:29;100891.05;;;19.57;40.05
62237;BME280;69163;48.778;2.308;2023-05-11T08:19:54;100891.33;;;20.10;39.96
62237;BME280;69163;48.778;2.308;2023-05-11T08:22:19;100887.35;;;19.61;40.02
62237;BME280;69163;48.778;2.308;2023-05-11T08:24:44;100884.09;;;19.66;39.95
62237;BME280;69163;48.778;2.308;2023-05-11T08:27:09;100883.45;;;19.61;40.11
62237;BME280;69163;48.778;2.308;2023-05-11T08:29:34;100885.14;;;19.64;40.05
62237;BME280;69163;48.778;2.308;2023-05-11T08:32:00;100885.29;;;19.60;40.06
62237;BME280;69163;48.778;2.308;2023-05-11T08:34:26;100888.15;;;19.52;40.17
62237;BME280;69163;48.778;2.308;2023-05-11T08:36:50;100887.06;;;19.49;40.21
62237;BME280;69163;48.778;2.308;2023-05-11T08:39:16;100889.17;;;20.02;40.12
62237;BME280;69163;48.778;2.308;2023-05-11T08:41:41;100888.95;;;19.65;40.05
62237;BME280;69163;48.778;2.308;2023-05-11T08:44:06;100886.86;;;19.68;40.29
62237;BME280;69163;48.778;2.308;2023-05-11T08:46:34;100885.48;;;19.81;40.60
62237;BME280;69163;48.778;2.308;2023-05-11T08:48:57;100884.84;;;19.68;40.56
62237;BME280;69163;48.778;2.308;2023-05-11T08:51:22;100883.47;;;19.84;40.60
62237;BME280;69163;48.778;2.308;2023-05-11T08:53:47;100884.48;;;20.07;40.73
62237;BME280;69163;48.778;2.308;2023-05-11T08:56:12;100881.38;;;19.62;40.81
62237;BME280;69163;48.778;2.308;2023-05-11T08:58:38;100881.96;;;19.81;40.92
62237;BME280;69163;48.778;2.308;2023-05-11T09:01:03;100883.29;;;19.57;40.83
62237;BME280;69163;48.778;2.308;2023-05-11T09:03:29;100883.92;;;19.94;40.70
62237;BME280;69163;48.778;2.308;2023-05-11T09:05:53;100881.71;;;20.27;40.64
62237;BME280;69163;48.778;2.308;2023-05-11T09:08:19;100880.52;;;19.87;40.50
62237;BME280;69163;48.778;2.308;2023-05-11T09:10:43;100883.22;;;19.83;40.49
62237;BME280;69163;48.778;2.308;2023-05-11T09:13:09;100884.49;;;19.85;40.51
62237;BME280;69163;48.778;2.308;2023-05-11T09:15:34;100886.82;;;19.92;40.38
62237;BME280;69163;48.778;2.308;2023-05-11T09:17:59;100885.93;;;19.95;40.29
62237;BME280;69163;48.778;2.308;2023-05-11T09:20:27;100883.15;;;20.19;40.27
62237;BME280;69163;48.778;2.308;2023-05-11T09:22:50;100883.28;;;20.25;40.35
62237;BME280;69163;48.778;2.308;2023-05-11T09:25:15;100885.95;;;19.76;40.43
62237;BME280;69163;48.778;2.308;2023-05-11T09:27:41;100884.46;;;19.71;40.38
62237;BME280;69163;48.778;2.308;2023-05-11T09:30:12;100883.18;;;19.64;40.43
62237;BME280;69163;48.778;2.308;2023-05-11T09:34:56;100880.43;;;19.84;40.55
62237;BME280;69163;48.778;2.308;2023-05-11T09:37:21;100881.36;;;19.77;40.62
62237;BME280;69163;48.778;2.308;2023-05-11T09:39:52;100883.27;;;19.96;40.68
62237;BME280;69163;48.778;2.308;2023-05-11T09:42:13;100882.31;;;19.54;40.62
62237;BME280;69163;48.778;2.308;2023-05-11T09:44:38;100880.87;;;19.52;40.81
62237;BME280;69163;48.778;2.308;2023-05-11T09:47:11;100876.54;;;19.67;40.89
62237;BME280;69163;48.778;2.308;2023-05-11T09:49:28;100876.56;;;19.92;41.08
62237;BME280;69163;48.778;2.308;2023-05-11T09:51:59;100874.17;;;19.60;41.37
62237;BME280;69163;48.778;2.308;2023-05-11T09:54:19;100871.62;;;19.71;41.55
62237;BME280;69163;48.778;2.308;2023-05-11T09:56:45;100870.09;;;19.73;41.55
62237;BME280;69163;48.778;2.308;2023-05-11T09:59:08;100866.09;;;19.64;41.84
62237;BME280;69163;48.778;2.308;2023-05-11T10:01:34;100865.20;;;19.64;42.01
62237;BME280;69163;48.778;2.308;2023-05-11T10:04:01;100869.05;;;20.14;41.92
62237;BME280;69163;48.778;2.308;2023-05-11T10:06:24;100861.33;;;19.90;42.04
62237;BME280;69163;48.778;2.308;2023-05-11T10:08:49;100864.51;;;19.86;41.76
62237;BME280;69163;48.778;2.308;2023-05-11T10:11:15;100859.19;;;20.03;41.48
62237;BME280;69163;48.778;2.308;2023-05-11T10:13:40;100858.02;;;20.11;41.37
62237;BME280;69163;48.778;2.308;2023-05-11T10:16:06;100855.89;;;20.30;41.42
62237;BME280;69163;48.778;2.308;2023-05-11T10:18:31;100856.41;;;20.53;41.39
62237;BME280;69163;48.778;2.308;2023-05-11T10:20:57;100859.04;;;20.00;41.47
62237;BME280;69163;48.778;2.308;2023-05-11T10:23:21;100858.91;;;20.23;41.45
62237;BME280;69163;48.778;2.308;2023-05-11T10:25:46;100857.67;;;20.14;41.59
62237;BME280;69163;48.778;2.308;2023-05-11T10:28:11;100859.66;;;20.35;41.60
62237;BME280;69163;48.778;2.308;2023-05-11T10:30:36;100857.89;;;20.31;41.58
62237;BME280;69163;48.778;2.308;2023-05-11T10:33:01;100857.58;;;20.12;41.52
62237;BME280;69163;48.778;2.308;2023-05-11T10:35:27;100857.86;;;20.16;41.41
62237;BME280;69163;48.778;2.308;2023-05-11T10:37:52;100856.83;;;20.11;41.44
62237;BME280;69163;48.778;2.308;2023-05-11T10:40:17;100858.27;;;20.34;41.49
62237;BME280;69163;48.778;2.308;2023-05-11T10:42:58;100857.31;;;20.06;41.51
62237;BME280;69163;48.778;2.308;2023-05-11T10:45:15;100859.87;;;19.82;41.46
62237;BME280;69163;48.778;2.308;2023-05-11T10:50:13;100858.87;;;20.28;41.44
62237;BME280;69163;48.778;2.308;2023-05-11T10:52:36;100860.52;;;20.31;41.35
62237;BME280;69163;48.778;2.308;2023-05-11T10:54:58;100860.37;;;20.27;41.33
62237;BME280;69163;48.778;2.308;2023-05-11T10:57:26;100860.40;;;20.28;41.32
62237;BME280;69163;48.778;2.308;2023-05-11T10:59:48;100862.11;;;20.34;41.21
62237;BME280;69163;48.778;2.308;2023-05-11T11:02:03;100859.53;;;20.34;41.11
62237;BME280;69163;48.778;2.308;2023-05-11T11:04:40;100855.19;;;19.71;40.62
62237;BME280;69163;48.778;2.308;2023-05-11T11:07:05;100854.54;;;19.76;40.92
62237;BME280;69163;48.778;2.308;2023-05-11T11:09:19;100850.96;;;19.84;40.98
62237;BME280;69163;48.778;2.308;2023-05-11T11:11:46;100854.24;;;19.79;41.07
62237;BME280;69163;48.778;2.308;2023-05-11T11:14:10;100853.00;;;19.84;40.96
62237;BME280;69163;48.778;2.308;2023-05-11T11:16:35;100850.35;;;20.16;40.79
62237;BME280;69163;48.778;2.308;2023-05-11T11:21:38;100848.11;;;19.82;40.68
62237;BME280;69163;48.778;2.308;2023-05-11T11:23:51;100846.78;;;20.33;40.68
62237;BME280;69163;48.778;2.308;2023-05-11T11:26:44;100842.27;;;19.84;40.67
62237;BME280;69163;48.778;2.308;2023-05-11T11:31:21;100841.93;;;19.54;40.88
62237;BME280;69163;48.778;2.308;2023-05-11T11:33:32;100840.77;;;19.44;40.95
62237;BME280;69163;48.778;2.308;2023-05-11T11:35:58;100841.37;;;19.64;40.95
62237;BME280;69163;48.778;2.308;2023-05-11T11:38:23;100837.09;;;19.53;40.99
62237;BME280;69163;48.778;2.308;2023-05-11T11:40:49;100837.20;;;19.69;41.22
62237;BME280;69163;48.778;2.308;2023-05-11T11:43:14;100840.32;;;19.19;41.21
62237;BME280;69163;48.778;2.308;2023-05-11T11:45:39;100838.02;;;18.91;41.67
62237;BME280;69163;48.778;2.308;2023-05-11T11:48:11;100836.99;;;18.92;41.62
62237;BME280;69163;48.778;2.308;2023-05-11T11:50:29;100831.92;;;19.36;41.63
62237;BME280;69163;48.778;2.308;2023-05-11T11:52:53;100831.38;;;19.28;41.68
62237;BME280;69163;48.778;2.308;2023-05-11T11:57:44;100831.04;;;18.76;41.96
62237;BME280;69163;48.778;2.308;2023-05-11T12:00:10;100829.77;;;18.94;42.08
62237;BME280;69163;48.778;2.308;2023-05-11T12:02:39;100831.07;;;18.97;41.70
62237;BME280;69163;48.778;2.308;2023-05-11T12:05:05;100828.87;;;18.92;41.70
62237;BME280;69163;48.778;2.308;2023-05-11T12:07:26;100827.96;;;19.41;41.60
62237;BME280;69163;48.778;2.308;2023-05-11T12:09:51;100826.62;;;18.98;41.81
62237;BME280;69163;48.778;2.308;2023-05-11T12:12:17;100825.08;;;18.96;41.82
62237;BME280;69163;48.778;2.308;2023-05-11T12:14:40;100824.54;;;18.62;41.97
62237;BME280;69163;48.778;2.308;2023-05-11T12:17:07;100825.44;;;18.70;41.90
62237;BME280;69163;48.778;2.308;2023-05-11T12:19:31;100826.76;;;18.59;41.93
62237;BME280;69163;48.778;2.308;2023-05-11T12:21:57;100828.28;;;18.58;42.05
62237;BME280;69163;48.778;2.308;2023-05-11T12:24:22;100825.86;;;18.98;42.02
62237;BME280;69163;48.778;2.308;2023-05-11T12:26:47;100826.30;;;18.81;42.14
62237;BME280;69163;48.778;2.308;2023-05-11T12:29:13;100825.32;;;18.34;42.24
62237;BME280;69163;48.778;2.308;2023-05-11T12:31:38;100825.98;;;18.75;42.02
62237;BME280;69163;48.778;2.308;2023-05-11T12:34:02;100823.26;;;18.35;42.24
62237;BME280;69163;48.778;2.308;2023-05-11T12:36:28;100822.19;;;18.85;42.24
62237;BME280;69163;48.778;2.308;2023-05-11T12:38:53;100822.87;;;18.76;42.36
62237;BME280;69163;48.778;2.308;2023-05-11T12:41:18;100819.65;;;18.07;42.42
62237;BME280;69163;48.778;2.308;2023-05-11T12:43:43;100822.87;;;18.36;42.43
62237;BME280;69163;48.778;2.308;2023-05-11T12:46:08;100821.33;;;18.40;42.26
62237;BME280;69163;48.778;2.308;2023-05-11T12:48:34;100823.60;;;18.16;42.19
62237;BME280;69163;48.778;2.308;2023-05-11T12:50:59;100821.91;;;18.16;42.12